createdAt,value
2019-03-12T00:00:28.132Z,14.50
2019-03-12T00:03:01.236Z,17.83
2019-03-12T00:05:31.596Z,15.80
2019-03-12T00:08:01.994Z,16.80
2019-03-12T00:10:32.480Z,16.77
2019-03-12T00:13:02.860Z,18.77
2019-03-12T00:15:33.196Z,17.00
2019-03-12T00:18:03.529Z,18.40
2019-03-12T00:20:33.987Z,15.37
2019-03-12T00:23:04.322Z,13.60
2019-03-12T00:25:34.683Z,18.93
2019-03-12T00:28:05.023Z,17.60
2019-03-12T00:30:35.690Z,18.03
2019-03-12T00:33:06.034Z,21.40
2019-03-12T00:35:36.390Z,17.93
2019-03-12T00:38:07.046Z,13.50
2019-03-12T00:40:37.397Z,14.90
2019-03-12T00:43:07.762Z,20.60
2019-03-12T00:45:38.117Z,14.47
2019-03-12T00:48:08.482Z,16.60
2019-03-12T00:50:38.840Z,14.70
2019-03-12T00:53:09.208Z,17.27
2019-03-12T00:55:40.450Z,16.93
2019-03-12T00:58:10.810Z,17.33
2019-03-12T01:00:41.178Z,18.17
2019-03-12T01:03:12.424Z,14.77
2019-03-12T01:05:42.770Z,14.47
2019-03-12T01:08:13.059Z,18.00
2019-03-12T01:10:43.338Z,15.40
2019-03-12T01:13:17.672Z,19.57
2019-03-12T01:15:48.054Z,16.53
2019-03-12T01:18:18.318Z,17.77
2019-03-12T01:20:48.697Z,16.67
2019-03-12T01:23:18.975Z,20.23
2019-03-12T01:25:49.267Z,19.83
2019-03-12T01:28:19.595Z,15.37
2019-03-12T01:30:49.956Z,11.90
2019-03-12T01:33:20.246Z,14.47
2019-03-12T01:35:50.601Z,12.53
2019-03-12T01:38:20.873Z,15.40
2019-03-12T01:40:52.135Z,12.63
2019-03-12T01:43:22.468Z,11.57
2019-03-12T01:45:52.860Z,11.23
2019-03-12T01:48:23.244Z,10.17
2019-03-12T01:50:53.606Z,13.07
2019-03-12T01:53:23.884Z,12.63
2019-03-12T01:55:54.202Z,13.13
2019-03-12T01:58:24.557Z,13.33
2019-03-12T02:00:54.897Z,13.97
2019-03-12T02:03:25.336Z,11.50
2019-03-12T02:05:55.680Z,13.57
2019-03-12T02:08:25.962Z,13.80
2019-03-12T02:10:56.318Z,15.57
2019-03-12T02:13:26.677Z,10.00
2019-03-12T02:15:57.037Z,13.23
2019-03-12T02:18:27.392Z,12.87
2019-03-12T02:20:57.683Z,13.20
2019-03-12T02:23:29.166Z,11.57
2019-03-12T02:25:59.662Z,12.10
2019-03-12T02:28:30.915Z,10.83
2019-03-12T02:31:01.212Z,12.83
2019-03-12T02:33:31.661Z,14.00
2019-03-12T02:36:02.986Z,9.57
2019-03-12T02:38:33.322Z,13.53
2019-03-12T02:41:03.682Z,14.30
2019-03-12T02:43:34.054Z,12.70
2019-03-12T02:46:06.332Z,11.90
2019-03-12T02:48:36.701Z,11.67
2019-03-12T02:51:07.060Z,11.50
2019-03-12T02:53:37.406Z,12.10
2019-03-12T02:56:07.698Z,17.23
2019-03-12T02:58:37.995Z,18.83
2019-03-12T03:01:08.356Z,12.90
2019-03-12T03:03:38.644Z,13.80
2019-03-12T03:06:16.733Z,15.27
2019-03-12T03:08:47.095Z,16.90
2019-03-12T03:11:17.414Z,12.50
2019-03-12T03:13:47.735Z,15.87
2019-03-12T03:16:18.091Z,17.57
2019-03-12T03:18:48.360Z,17.03
2019-03-12T03:21:18.643Z,14.53
2019-03-12T03:23:49.989Z,12.47
2019-03-12T03:26:20.285Z,15.60
2019-03-12T03:28:50.658Z,11.73
2019-03-12T03:31:21.015Z,10.23
2019-03-12T03:33:51.317Z,13.37
2019-03-12T03:36:21.665Z,15.47
2019-03-12T03:38:52.037Z,17.17
2019-03-12T03:41:22.319Z,11.03
2019-03-12T03:43:52.609Z,14.30
2019-03-12T03:46:22.960Z,11.00
2019-03-12T03:48:53.237Z,12.83
2019-03-12T03:51:23.563Z,11.40
2019-03-12T03:53:53.929Z,14.07
2019-03-12T03:56:24.227Z,11.20
2019-03-12T03:58:54.591Z,12.23
2019-03-12T04:01:24.945Z,10.53
2019-03-12T04:03:55.295Z,11.07
2019-03-12T04:06:25.574Z,10.83
2019-03-12T04:08:55.928Z,14.00
2019-03-12T04:11:26.235Z,11.27
2019-03-12T04:13:56.569Z,11.30
2019-03-12T04:16:26.859Z,12.67
2019-03-12T04:18:57.684Z,10.93
2019-03-12T04:21:28.032Z,14.07
2019-03-12T04:23:58.324Z,13.67
2019-03-12T04:26:28.687Z,11.10
2019-03-12T04:28:58.957Z,11.50
2019-03-12T04:31:29.381Z,14.33
2019-03-12T04:34:02.991Z,12.70
2019-03-12T04:36:33.412Z,13.27
2019-03-12T04:39:05.373Z,12.23
2019-03-12T04:41:37.324Z,13.03
2019-03-12T04:44:07.733Z,14.00
2019-03-12T04:46:38.106Z,12.83
2019-03-12T04:49:08.445Z,13.60
2019-03-12T04:51:38.803Z,11.83
2019-03-12T04:54:09.166Z,15.33
2019-03-12T04:56:39.527Z,9.77
2019-03-12T04:59:09.889Z,10.50
2019-03-12T05:01:40.246Z,12.73
2019-03-12T05:04:10.633Z,13.37
2019-03-12T05:06:40.923Z,11.73
2019-03-12T05:09:11.200Z,12.30
2019-03-12T05:11:41.581Z,11.20
2019-03-12T05:14:20.290Z,11.87
2019-03-12T05:16:51.694Z,15.53
2019-03-12T05:19:22.902Z,11.30
2019-03-12T05:21:53.262Z,13.93
2019-03-12T05:24:23.640Z,11.67
2019-03-12T05:26:55.001Z,12.23
2019-03-12T05:29:25.286Z,12.60
2019-03-12T05:31:55.667Z,10.63
2019-03-12T05:34:26.035Z,14.30
2019-03-12T05:36:57.344Z,13.77
2019-03-12T05:39:27.757Z,12.50
2019-03-12T05:41:58.172Z,12.60
2019-03-12T05:44:28.459Z,11.43
2019-03-12T05:46:58.757Z,14.17
2019-03-12T05:49:29.190Z,12.07
2019-03-12T05:51:59.657Z,11.90
2019-03-12T05:54:29.940Z,13.43
2019-03-12T05:57:00.293Z,12.67
2019-03-12T05:59:30.650Z,13.27
2019-03-12T06:02:02.057Z,15.30
2019-03-12T06:04:32.436Z,17.20
2019-03-12T06:07:03.813Z,33.53
2019-03-12T06:09:34.094Z,17.77
2019-03-12T06:12:04.425Z,14.33
2019-03-12T06:14:35.032Z,12.53
2019-03-12T06:17:05.608Z,15.80
2019-03-12T06:19:35.971Z,16.23
2019-03-12T06:22:06.321Z,13.93
2019-03-12T06:24:36.706Z,13.87
2019-03-12T06:27:07.124Z,16.73
2019-03-12T06:29:37.485Z,13.03
2019-03-12T06:32:12.189Z,13.67
2019-03-12T06:34:44.254Z,11.60
2019-03-12T06:37:19.163Z,12.67
2019-03-12T06:39:54.166Z,11.83
2019-03-12T06:42:26.138Z,11.30
2019-03-12T06:44:58.140Z,11.27
2019-03-12T06:47:39.323Z,15.30
2019-03-12T06:50:14.363Z,11.60
2019-03-12T06:52:49.544Z,9.73
2019-03-12T06:55:27.700Z,12.00
2019-03-12T06:58:20.432Z,9.83
2019-03-12T07:00:58.255Z,12.00
2019-03-12T07:03:36.028Z,12.13
2019-03-12T07:06:16.790Z,10.80
2019-03-12T07:08:48.830Z,14.13
2019-03-12T07:11:26.563Z,13.57
2019-03-12T07:14:01.269Z,13.87
2019-03-12T07:16:33.287Z,13.67
2019-03-12T07:19:11.744Z,17.80
2019-03-12T07:21:46.517Z,12.20
2019-03-12T07:24:24.627Z,10.97
2019-03-12T07:26:56.623Z,9.07
2019-03-12T07:29:34.573Z,12.43
2019-03-12T07:32:06.551Z,15.00
2019-03-12T07:34:38.481Z,13.40
2019-03-12T07:37:16.222Z,13.67
2019-03-12T07:39:52.238Z,10.60
2019-03-12T07:42:33.449Z,12.63
2019-03-12T07:45:08.516Z,12.80
2019-03-12T07:47:43.322Z,36.03
2019-03-12T07:50:24.322Z,17.33
2019-03-12T07:53:12.969Z,11.97
2019-03-12T07:55:50.908Z,11.10
2019-03-12T07:58:35.647Z,13.70
2019-03-12T08:01:08.817Z,14.80
2019-03-12T08:03:43.722Z,11.07
2019-03-12T08:06:15.724Z,8.43
2019-03-12T08:09:03.229Z,10.33
2019-03-12T08:11:48.890Z,12.97
2019-03-12T08:14:35.794Z,13.27
2019-03-12T08:17:07.772Z,15.53
2019-03-12T08:19:39.773Z,12.93
2019-03-12T08:22:14.733Z,13.67
2019-03-12T08:27:38.481Z,18.60
2019-03-12T08:30:15.227Z,15.07
2019-03-12T08:32:50.073Z,17.03
2019-03-12T08:35:28.425Z,17.97
2019-03-12T08:38:00.560Z,18.67
2019-03-12T08:40:35.337Z,16.60
2019-03-12T08:43:07.338Z,16.50
2019-03-12T08:45:45.473Z,15.83
2019-03-12T08:48:19.866Z,15.20
2019-03-12T08:51:07.091Z,18.50
2019-03-12T08:53:42.143Z,19.53
2019-03-12T08:56:19.929Z,19.60
2019-03-12T08:58:57.984Z,15.87
2019-03-12T09:01:38.968Z,15.93
2019-03-12T09:04:13.662Z,17.90
2019-03-12T09:06:45.667Z,14.17
2019-03-12T09:09:26.656Z,17.37
2019-03-12T09:11:58.689Z,14.57
2019-03-12T09:14:30.623Z,17.27
2019-03-12T09:17:02.617Z,19.23
2019-03-12T09:19:40.799Z,13.03
2019-03-12T09:22:12.862Z,18.27
2019-03-12T09:25:03.881Z,17.63
2019-03-12T09:27:35.879Z,21.27
2019-03-12T09:30:11.171Z,23.43
2019-03-12T09:32:55.007Z,16.67
2019-03-12T09:35:44.337Z,15.93
2019-03-12T09:38:32.627Z,18.97
2019-03-12T09:41:06.266Z,24.60
2019-03-12T09:43:48.351Z,15.67
2019-03-12T09:46:32.579Z,15.10
2019-03-12T09:49:10.708Z,14.53
2019-03-12T09:51:52.020Z,17.83
2019-03-12T09:54:24.064Z,15.03
2019-03-12T09:57:04.847Z,17.23
2019-03-12T09:59:49.096Z,17.90
2019-03-12T10:05:14.847Z,14.67
2019-03-12T10:07:56.116Z,18.33
2019-03-12T10:10:30.830Z,15.17
2019-03-12T10:13:13.433Z,17.20
2019-03-12T10:16:01.704Z,17.00
2019-03-12T10:18:34.813Z,13.40
2019-03-12T10:21:12.930Z,12.90
2019-03-12T10:23:45.009Z,12.83
2019-03-12T10:26:27.500Z,14.07
2019-03-12T10:29:12.266Z,14.93
2019-03-12T10:31:47.239Z,13.97
2019-03-12T10:34:29.548Z,13.20
2019-03-12T10:37:16.459Z,11.47
2019-03-12T10:40:07.822Z,11.87
2019-03-12T10:42:54.045Z,12.90
2019-03-12T10:45:44.183Z,11.33
2019-03-12T10:48:15.476Z,14.70
2019-03-12T10:50:45.846Z,10.07
2019-03-12T10:53:16.186Z,11.93
2019-03-12T10:55:46.573Z,10.27
2019-03-12T10:58:16.924Z,11.63
2019-03-12T11:00:47.212Z,9.53
2019-03-12T11:03:17.681Z,12.63
2019-03-12T11:05:48.118Z,10.23
2019-03-12T11:08:18.498Z,10.60
2019-03-12T11:10:48.853Z,10.40
2019-03-12T11:13:19.227Z,9.53
2019-03-12T11:15:49.767Z,13.17
2019-03-12T11:18:20.122Z,12.33
2019-03-12T11:20:50.523Z,12.10
2019-03-12T11:23:20.812Z,12.47
2019-03-12T11:25:52.244Z,14.97
2019-03-12T11:28:22.587Z,12.00
2019-03-12T11:30:52.947Z,10.13
2019-03-12T11:33:23.219Z,12.90
2019-03-12T11:35:53.758Z,9.30
2019-03-12T11:38:24.478Z,11.87
2019-03-12T11:40:55.465Z,35.27
2019-03-12T11:43:25.856Z,10.57
2019-03-12T11:45:56.207Z,10.57
2019-03-12T11:48:26.488Z,11.23
2019-03-12T11:50:56.845Z,9.37
2019-03-12T11:53:27.205Z,8.43
2019-03-12T11:55:57.578Z,9.03
2019-03-12T11:58:28.129Z,7.70
2019-03-12T12:01:03.090Z,7.97
2019-03-12T12:03:33.606Z,8.97
2019-03-12T12:06:04.301Z,7.53
2019-03-12T12:08:34.750Z,9.23
2019-03-12T12:11:12.559Z,8.13
2019-03-12T12:13:42.999Z,8.37
2019-03-12T12:16:13.289Z,8.47
2019-03-12T12:18:43.749Z,9.00
2019-03-12T12:21:15.541Z,7.93
2019-03-12T12:23:45.986Z,9.47
2019-03-12T12:26:16.360Z,9.77
2019-03-12T12:28:46.850Z,7.13
2019-03-12T12:31:17.269Z,7.70
2019-03-12T12:33:47.726Z,9.33
2019-03-12T12:36:18.013Z,7.83
2019-03-12T12:38:48.395Z,8.43
2019-03-12T12:41:19.177Z,8.30
2019-03-12T12:43:49.523Z,8.50
2019-03-12T12:46:19.809Z,6.87
2019-03-12T12:48:53.176Z,8.23
2019-03-12T12:51:22.190Z,8.43
2019-03-12T12:53:52.632Z,15.73
2019-03-12T12:56:22.924Z,14.70
2019-03-12T12:58:53.274Z,7.47
2019-03-12T13:01:23.559Z,9.80
2019-03-12T13:03:53.918Z,6.00
2019-03-12T13:06:24.363Z,7.27
2019-03-12T13:08:54.682Z,9.47
2019-03-12T13:11:25.054Z,6.63
2019-03-12T13:13:55.344Z,12.97
2019-03-12T13:16:25.963Z,9.43
2019-03-12T13:18:57.287Z,7.87
2019-03-12T13:21:27.571Z,7.97
2019-03-12T13:23:57.876Z,5.47
2019-03-12T13:26:28.247Z,4.17
2019-03-12T13:28:58.614Z,5.90
2019-03-12T13:31:29.105Z,4.67
2019-03-12T13:33:59.554Z,5.20
2019-03-12T13:36:29.919Z,6.30
2019-03-12T13:39:00.221Z,6.00
2019-03-12T13:41:32.216Z,4.87
2019-03-12T13:44:02.714Z,5.83
2019-03-12T13:46:33.046Z,3.90
2019-03-12T13:49:03.607Z,5.30
2019-03-12T13:51:33.954Z,5.30
2019-03-12T13:54:04.284Z,5.67
2019-03-12T13:56:34.639Z,4.17
2019-03-12T13:59:05.003Z,5.27
2019-03-12T14:01:35.573Z,6.10
2019-03-12T14:04:10.698Z,4.83
2019-03-12T14:06:38.016Z,5.27
2019-03-12T14:09:08.471Z,6.43
2019-03-12T14:11:41.833Z,6.60
2019-03-12T14:14:12.183Z,8.77
2019-03-12T14:16:42.543Z,5.33
2019-03-12T14:19:12.898Z,7.27
2019-03-12T14:21:43.233Z,8.87
2019-03-12T14:24:13.587Z,10.77
2019-03-12T14:26:43.962Z,6.43
2019-03-12T14:29:14.298Z,5.90
2019-03-12T14:31:44.626Z,9.37
2019-03-12T14:34:15.771Z,5.47
2019-03-12T14:36:46.208Z,8.13
2019-03-12T14:39:16.817Z,8.13
2019-03-12T14:41:47.192Z,6.00
2019-03-12T14:44:17.543Z,8.13
2019-03-12T14:46:47.955Z,8.13
2019-03-12T14:49:18.387Z,7.57
2019-03-12T14:51:58.315Z,6.13
2019-03-12T14:54:31.115Z,8.43
2019-03-12T14:57:03.947Z,8.87
2019-03-12T14:59:34.506Z,9.10
2019-03-12T15:02:05.848Z,10.50
2019-03-12T15:04:36.235Z,9.83
2019-03-12T15:07:06.602Z,8.13
2019-03-12T15:09:36.973Z,9.27
2019-03-12T15:12:07.341Z,7.50
2019-03-12T15:14:37.944Z,9.03
2019-03-12T15:17:08.300Z,10.40
2019-03-12T15:19:38.675Z,14.93
2019-03-12T15:22:09.125Z,21.67
2019-03-12T15:24:40.460Z,14.50
2019-03-12T15:27:10.825Z,10.93
2019-03-12T15:29:42.649Z,8.80
2019-03-12T15:32:13.268Z,10.60
2019-03-12T15:34:43.631Z,14.73
2019-03-12T15:37:13.972Z,11.83
2019-03-12T15:39:44.346Z,10.53
2019-03-12T15:42:15.355Z,10.10
2019-03-12T15:44:45.999Z,11.70
2019-03-12T15:47:16.364Z,11.93
2019-03-12T15:49:46.656Z,11.97
2019-03-12T15:52:17.036Z,12.53
2019-03-12T15:54:47.377Z,12.87
2019-03-12T15:57:17.732Z,12.20
2019-03-12T15:59:48.404Z,12.23
2019-03-12T16:02:18.711Z,16.40
2019-03-12T16:04:49.104Z,10.00
2019-03-12T16:07:19.475Z,9.43
2019-03-12T16:09:49.843Z,8.30
2019-03-12T16:12:20.177Z,7.47
2019-03-12T16:14:50.560Z,9.17
2019-03-12T16:17:20.842Z,12.17
2019-03-12T16:19:51.262Z,9.63
2019-03-12T16:22:21.557Z,13.37
2019-03-12T16:24:51.922Z,11.07
2019-03-12T16:27:22.544Z,14.47
2019-03-12T16:29:53.804Z,14.10
2019-03-12T16:32:26.544Z,10.23
2019-03-12T16:34:56.905Z,33.80
2019-03-12T16:37:27.339Z,162.03
2019-03-12T16:39:57.715Z,232.97
2019-03-12T16:42:34.925Z,229.57
2019-03-12T16:45:00.169Z,209.63
2019-03-12T16:47:32.134Z,198.23
2019-03-12T16:50:02.541Z,165.67
2019-03-12T16:52:32.903Z,160.60
2019-03-12T16:55:03.403Z,147.73
2019-03-12T16:57:33.794Z,133.50
2019-03-12T17:00:11.403Z,128.70
2019-03-12T17:02:42.927Z,146.83
2019-03-12T17:05:13.524Z,143.77
2019-03-12T17:07:44.796Z,92.17
2019-03-12T17:10:21.733Z,89.13
2019-03-12T17:12:52.095Z,72.87
2019-03-12T17:15:27.439Z,67.47
2019-03-12T17:17:57.824Z,58.23
2019-03-12T17:20:28.151Z,52.20
2019-03-12T17:22:58.514Z,42.57
2019-03-12T17:25:28.831Z,31.27
2019-03-12T17:27:59.219Z,32.27
2019-03-12T17:30:29.619Z,38.97
2019-03-12T17:33:00.015Z,35.70
2019-03-12T17:35:41.552Z,28.17
2019-03-12T17:38:12.895Z,33.10
2019-03-12T17:40:43.319Z,29.63
2019-03-12T17:43:13.701Z,26.03
2019-03-12T17:45:44.089Z,22.87
2019-03-12T17:48:14.435Z,33.50
2019-03-12T17:50:46.409Z,34.13
2019-03-12T17:53:16.714Z,87.03
2019-03-12T17:55:47.087Z,52.10
2019-03-12T17:58:17.672Z,54.23
2019-03-12T18:00:48.055Z,52.67
2019-03-12T18:03:20.012Z,52.33
2019-03-12T18:05:50.398Z,45.90
2019-03-12T18:08:20.847Z,69.53
2019-03-12T18:10:51.262Z,58.60
2019-03-12T18:13:21.672Z,49.80
2019-03-12T18:15:52.033Z,41.87
2019-03-12T18:18:22.395Z,47.43
2019-03-12T18:20:52.879Z,83.17
2019-03-12T18:23:24.695Z,88.80
2019-03-12T18:25:55.356Z,61.63
2019-03-12T18:28:26.047Z,60.13
2019-03-12T18:30:56.505Z,131.77
2019-03-12T18:33:27.010Z,126.17
2019-03-12T18:35:59.249Z,95.47
2019-03-12T18:38:30.532Z,105.73
2019-03-12T18:41:01.169Z,46.93
2019-03-12T18:43:32.940Z,48.50
2019-03-12T18:46:03.698Z,57.90
2019-03-12T18:48:34.288Z,47.30
2019-03-12T18:51:04.785Z,58.27
2019-03-12T18:53:35.249Z,40.20
2019-03-12T18:56:06.168Z,39.43
2019-03-12T18:58:42.004Z,39.53
2019-03-12T19:01:15.128Z,41.63
2019-03-12T19:03:45.800Z,37.37
2019-03-12T19:06:16.520Z,39.57
2019-03-12T19:08:48.609Z,38.77
2019-03-12T19:11:19.228Z,32.10
2019-03-12T19:13:49.847Z,26.87
2019-03-12T19:16:20.824Z,32.87
2019-03-12T19:18:52.510Z,31.10
2019-03-12T19:21:23.691Z,43.37
2019-03-12T19:23:55.776Z,67.30
2019-03-12T19:26:26.563Z,78.50
2019-03-12T19:28:56.958Z,49.50
2019-03-12T19:31:30.559Z,39.70
2019-03-12T19:34:03.439Z,41.23
2019-03-12T19:36:34.079Z,35.73
2019-03-12T19:39:07.025Z,27.10
2019-03-12T19:41:38.318Z,35.10
2019-03-12T19:44:11.206Z,30.77
2019-03-12T19:46:43.150Z,35.17
2019-03-12T19:49:14.254Z,33.00
2019-03-12T19:51:50.312Z,34.50
2019-03-12T19:54:25.079Z,26.50
2019-03-12T19:56:55.652Z,28.70
2019-03-12T19:59:26.079Z,31.73
2019-03-12T20:01:56.503Z,28.20
2019-03-12T20:04:27.889Z,30.23
2019-03-12T20:06:58.449Z,29.13
2019-03-12T20:09:35.078Z,24.50
2019-03-12T20:12:20.564Z,23.07
2019-03-12T20:15:16.570Z,20.97
2019-03-12T20:18:19.058Z,20.10
2019-03-12T20:21:18.223Z,21.03
2019-03-12T20:24:13.249Z,25.73
2019-03-12T20:27:03.557Z,21.40
2019-03-12T20:30:03.061Z,23.63
2019-03-12T20:33:02.986Z,22.73
2019-03-12T20:35:56.953Z,21.43
2019-03-12T20:38:48.738Z,22.67
2019-03-12T20:41:28.530Z,20.03
2019-03-12T20:44:14.468Z,21.93
2019-03-12T20:47:03.181Z,23.53
2019-03-12T20:50:10.356Z,21.77
2019-03-12T20:52:55.604Z,23.83
2019-03-12T20:55:42.032Z,32.43
2019-03-12T20:58:46.659Z,35.77
2019-03-12T21:01:53.315Z,33.10
2019-03-12T21:05:00.439Z,24.83
2019-03-12T21:08:07.079Z,29.57
2019-03-12T21:11:00.133Z,26.80
2019-03-12T21:13:48.254Z,27.00
2019-03-12T21:16:55.399Z,20.70
2019-03-12T21:19:29.025Z,19.23
2019-03-12T21:22:08.500Z,21.13
2019-03-12T21:25:18.764Z,19.60
2019-03-12T21:28:04.482Z,19.23
2019-03-12T21:30:35.165Z,19.10
2019-03-12T21:33:15.274Z,20.20
2019-03-12T21:35:41.204Z,20.50
2019-03-12T21:38:13.202Z,22.87
2019-03-12T21:40:45.087Z,20.93
2019-03-12T21:43:16.524Z,25.20
2019-03-12T21:45:47.165Z,17.93
2019-03-12T21:48:17.463Z,22.27
2019-03-12T21:50:47.914Z,19.57
2019-03-12T21:53:18.286Z,19.37
2019-03-12T21:55:48.778Z,20.23
2019-03-12T21:58:19.171Z,22.90
2019-03-12T22:00:49.550Z,21.17
2019-03-12T22:03:19.948Z,21.33
2019-03-12T22:05:50.346Z,21.80
2019-03-12T22:08:20.615Z,20.00
2019-03-12T22:10:50.994Z,15.30
2019-03-12T22:13:21.350Z,16.67
2019-03-12T22:15:52.773Z,17.40
2019-03-12T22:18:23.111Z,19.67
2019-03-12T22:20:53.467Z,16.93
2019-03-12T22:23:25.427Z,17.83
2019-03-12T22:25:56.142Z,19.07
2019-03-12T22:28:26.618Z,16.93
2019-03-12T22:30:56.982Z,15.77
2019-03-12T22:33:27.338Z,15.80
2019-03-12T22:35:57.703Z,14.47
2019-03-12T22:38:28.006Z,14.40
2019-03-12T22:40:58.444Z,16.17
2019-03-12T22:43:28.730Z,16.33
2019-03-12T22:45:59.054Z,14.30
2019-03-12T22:48:29.536Z,14.60
2019-03-12T22:51:00.792Z,15.37
2019-03-12T22:53:32.283Z,14.87
2019-03-12T22:56:02.625Z,20.43
2019-03-12T22:58:32.931Z,18.23
2019-03-12T23:01:21.199Z,21.40
2019-03-12T23:04:09.525Z,18.57
2019-03-12T23:06:57.925Z,14.90
2019-03-12T23:09:42.788Z,15.53
2019-03-12T23:12:16.964Z,19.80
2019-03-12T23:14:48.459Z,17.37
2019-03-12T23:17:20.347Z,14.80
2019-03-12T23:19:50.719Z,16.53
2019-03-12T23:22:21.099Z,20.63
2019-03-12T23:24:52.559Z,18.10
2019-03-12T23:27:22.872Z,13.47
2019-03-12T23:29:53.199Z,17.77
2019-03-12T23:32:23.517Z,15.83
2019-03-12T23:34:53.910Z,14.20
2019-03-12T23:37:25.361Z,14.03
2019-03-12T23:39:55.681Z,20.63
2019-03-12T23:42:26.349Z,16.07
2019-03-12T23:44:56.724Z,16.50
2019-03-12T23:47:27.187Z,12.37
2019-03-12T23:49:57.575Z,16.13
2019-03-12T23:52:27.957Z,12.63
2019-03-12T23:54:58.348Z,12.37
2019-03-12T23:57:28.730Z,19.60
2019-03-12T23:59:59.126Z,13.93
